首页
METAR-TAF:

METAR-TAF

机场 :

大连周水子国际机场

大连, 中华人民共和国

纬度: 38-54N, 经度: 121-38E, 海拔: 97米

当前天气观测

该预报发布于30分钟前的04:00 UTC
风速14节,风向西
温度 11°C
湿度 54%
气压 1020 hPa
能见度10公里或以上
散云层高于2000英尺

METAR: ZYTL 180400Z 27007MPS 9999 SCT020 11/02 Q1020 NOSIG

时间: 12:30 (04:30 UTC)

预报

该预报发布于9小时和28分钟前的19:02 UTC
预报有效从18日的 00点(UTC)到 18日的 24点(UTC)
风速8节,风向西,有时为19节阵风
能见度10公里或以上
1500米以下无云,无积雨云

TAF: ZYTL 171902Z 1800/1824 28004G10MPS CAVOK TX12/1806Z TN01/1821Z

超过4000个机场的气象观测和天气预报(METAR&TAF报告)。

可查询的气象台以黄色和红色小点在地图上表示。

将鼠标移到小点上方,可查看气象台名称。

然后点击查看天气观测和预报。

如需切换地图:点击带黑十字的绿色按钮放大地图;点击带横线的绿色按钮缩小地图;或者点击绿色箭头查看邻近地区的地图。


METAR-TAF: